Time;durP1;ratioP1;P1;durP2;ratioP2;P2;SDS_P1;SDS_P2;PMS_P1;PMS_P2;Temp;Humidity;BMP_temperature;BMP_pressure;BME280_temperature;BME280_humidity;BME280_pressure;Samples;Min_cycle;Max_cycle;Signal;HPM_P1;HPM_P2
2023/09/12 00:01:05;;;;;;;17.10;6.97;;;;;;;28.68;72.15;95899.00;6132099;23;20004;-89
2023/09/12 00:03:31;;;;;;;12.13;6.43;;;;;;;29.11;65.79;95899.22;6131450;23;20024;-90
2023/09/12 00:05:58;;;;;;;18.75;6.93;;;;;;;28.69;70.31;95902.50;6122219;23;20027;-90
2023/09/12 00:08:24;;;;;;;13.98;6.82;;;;;;;29.12;65.87;95911.63;6140972;23;20100;-90
2023/09/12 00:11:02;;;;;;;12.20;6.35;;;;;;;29.18;64.38;95902.38;6130866;23;20001;-90
2023/09/12 00:13:29;;;;;;;17.88;7.07;;;;;;;29.21;65.41;95896.41;6106318;23;20025;-90
2023/09/12 00:15:54;;;;;;;12.38;6.35;;;;;;;28.89;68.39;95894.22;6130606;23;20001;-90
2023/09/12 00:18:20;;;;;;;13.30;6.90;;;;;;;29.19;67.75;95898.56;6129437;23;20020;-90
2023/09/12 00:20:45;;;;;;;17.05;7.05;;;;;;;29.24;65.67;95893.13;6130563;23;20009;-90
2023/09/12 00:23:15;;;;;;;12.57;6.75;;;;;;;28.97;69.75;95887.38;6130672;23;20060;-90
2023/09/12 00:25:40;;;;;;;17.05;6.20;;;;;;;29.19;69.58;95879.63;6131015;23;20033;-90
2023/09/12 00:28:06;;;;;;;14.15;6.95;;;;;;;28.90;67.34;95883.09;6130067;23;20009;-90
2023/09/12 00:30:31;;;;;;;13.48;7.05;;;;;;;28.95;69.40;95876.03;6131246;23;20005;-90
2023/09/12 00:32:57;;;;;;;14.70;6.45;;;;;;;29.30;65.89;95873.00;6131791;23;20009;-89
2023/09/12 00:35:24;;;;;;;17.15;7.22;;;;;;;29.22;66.77;95870.13;6107078;23;20002;-90
2023/09/12 00:37:50;;;;;;;16.17;6.90;;;;;;;29.18;68.65;95872.59;6130670;23;20005;-90
2023/09/12 00:40:16;;;;;;;12.85;6.38;;;;;;;29.26;69.12;95861.13;6137330;23;20148;-90
2023/09/12 00:42:42;;;;;;;15.02;6.97;;;;;;;28.86;70.95;95868.50;6110242;23;20013;-91
2023/09/12 00:45:08;;;;;;;14.93;7.65;;;;;;;28.74;75.92;95856.44;6131456;23;20335;-90
2023/09/12 00:47:35;;;;;;;16.77;8.13;;;;;;;29.07;71.74;95854.81;6130398;23;20056;-88
2023/09/12 00:50:04;;;;;;;15.10;6.78;;;;;;;29.09;67.38;95849.94;6156288;23;20116;-90
2023/09/12 00:52:32;;;;;;;20.60;7.93;;;;;;;29.10;68.18;95851.53;6105342;23;20005;-90
2023/09/12 00:54:57;;;;;;;11.68;6.50;;;;;;;28.74;70.88;95846.47;6130888;23;20111;-90
2023/09/12 00:57:24;;;;;;;17.33;7.28;;;;;;;27.98;80.70;95846.97;6106885;23;20018;-90
2023/09/12 00:59:51;;;;;;;19.20;7.13;;;;;;;27.79;82.65;95850.31;6129912;23;20009;-90
2023/09/12 01:02:18;;;;;;;13.63;6.85;;;;;;;27.74;78.02;95840.31;6130246;23;20223;-89
2023/09/12 01:04:43;;;;;;;15.80;7.97;;;;;;;28.05;77.00;95842.88;6132188;23;20016;-90
2023/09/12 01:07:09;;;;;;;16.92;7.70;;;;;;;28.63;73.32;95847.63;6129998;23;20021;-90
2023/09/12 01:09:36;;;;;;;15.98;6.88;;;;;;;28.54;71.12;95849.31;6130403;23;20006;-89
2023/09/12 01:12:02;;;;;;;16.35;6.30;;;;;;;28.64;71.17;95844.63;6105141;23;20530;-89
2023/09/12 01:14:31;;;;;;;17.70;6.32;;;;;;;28.64;70.82;95847.34;6129875;23;20005;-90
2023/09/12 01:16:58;;;;;;;12.50;6.90;;;;;;;28.74;68.95;95853.75;6127726;23;20057;-89
2023/09/12 01:19:24;;;;;;;16.88;7.30;;;;;;;28.99;69.37;95850.00;6126062;23;19998;-89
2023/09/12 01:22:08;;;;;;;15.18;7.28;;;;;;;29.29;65.87;95849.72;6104164;23;20005;-89
2023/09/12 01:24:52;;;;;;;11.70;6.72;;;;;;;29.14;66.00;95849.88;6103074;23;20013;-89
2023/09/12 01:27:30;;;;;;;13.38;7.10;;;;;;;28.96;65.87;95850.56;6103096;23;20059;-89
2023/09/12 01:30:03;;;;;;;14.32;7.15;;;;;;;29.08;68.26;95861.88;6154483;23;20096;-89
2023/09/12 01:32:30;;;;;;;16.67;7.18;;;;;;;28.78;70.94;95858.31;6128486;23;19998;-90
2023/09/12 01:34:55;;;;;;;17.65;7.53;;;;;;;28.77;71.46;95866.69;6129105;23;20009;-89
2023/09/12 01:37:24;;;;;;;12.95;6.60;;;;;;;29.00;67.05;95865.97;6127197;23;20032;-89
2023/09/12 01:39:49;;;;;;;13.98;7.85;;;;;;;28.86;70.30;95868.50;6128202;23;20019;-89
2023/09/12 01:42:18;;;;;;;18.23;7.85;;;;;;;29.01;68.21;95872.22;6128205;23;20014;-89
2023/09/12 01:44:45;;;;;;;15.32;7.57;;;;;;;28.54;71.79;95866.38;6128810;23;20010;-90
2023/09/12 01:47:12;;;;;;;14.75;7.60;;;;;;;28.22;73.92;95866.03;6127630;23;20036;-90
2023/09/12 01:49:41;;;;;;;16.70;8.20;;;;;;;28.22;73.32;95864.13;6104880;23;20433;-89
2023/09/12 01:52:07;;;;;;;18.83;8.20;;;;;;;27.99;74.05;95857.50;6104077;23;19997;-90
2023/09/12 01:54:34;;;;;;;14.85;7.68;;;;;;;27.93;78.58;95864.84;6128394;23;20009;-89
2023/09/12 01:57:01;;;;;;;15.40;8.48;;;;;;;27.65;77.88;95863.56;6103011;23;20095;-89
2023/09/12 01:59:27;;;;;;;11.02;7.07;;;;;;;27.96;76.93;95864.25;6128293;23;20441;-89
2023/09/12 02:01:53;;;;;;;18.55;8.27;;;;;;;28.08;74.36;95865.84;6129662;23;20088;-89
2023/09/12 02:04:19;;;;;;;13.52;7.82;;;;;;;27.89;74.90;95866.47;6105660;23;20024;-89
2023/09/12 02:06:44;;;;;;;15.43;8.18;;;;;;;27.84;76.36;95863.81;6130297;23;20152;-90
2023/09/12 02:09:10;;;;;;;16.90;7.95;;;;;;;28.01;73.57;95859.94;6131849;23;20009;-89
2023/09/12 02:11:35;;;;;;;14.85;7.60;;;;;;;27.77;76.22;95871.41;6137550;23;20028;-90
2023/09/12 02:14:01;;;;;;;14.43;6.93;;;;;;;28.05;75.32;95860.97;6126924;23;20567;-90
2023/09/12 02:16:27;;;;;;;18.10;7.82;;;;;;;28.08;77.42;95871.25;6129613;23;20016;-89
2023/09/12 02:18:52;;;;;;;17.73;7.88;;;;;;;27.88;75.04;95867.56;6130221;23;20050;-87
2023/09/12 02:21:18;;;;;;;18.25;7.20;;;;;;;28.03;76.98;95858.53;6130597;23;20345;-90
2023/09/12 02:23:43;;;;;;;20.25;7.85;;;;;;;28.17;71.80;95869.56;6129548;23;20006;-89
2023/09/12 02:26:09;;;;;;;19.45;7.57;;;;;;;27.90;76.13;95872.66;6127390;23;20010;-89
2023/09/12 02:28:34;;;;;;;17.25;8.13;;;;;;;27.69;76.79;95861.13;6106769;23;20043;-89
2023/09/12 02:31:11;;;;;;;18.48;7.15;;;;;;;28.54;71.59;95865.53;6129656;23;20089;-89
2023/09/12 02:33:40;;;;;;;19.58;7.30;;;;;;;28.16;74.07;95867.94;6129675;23;20093;-90
2023/09/12 02:36:06;;;;;;;16.83;7.90;;;;;;;28.11;76.03;95866.09;6129753;23;20045;-89
2023/09/12 02:38:32;;;;;;;14.65;7.63;;;;;;;27.91;78.78;95871.59;6104120;23;20084;-89
2023/09/12 02:40:58;;;;;;;12.68;7.93;;;;;;;27.78;79.49;95866.81;6129307;23;20033;-89
2023/09/12 02:43:38;;;;;;;14.07;7.43;;;;;;;27.44;79.50;95870.94;6105417;23;20057;-89
2023/09/12 02:46:03;;;;;;;12.00;7.63;;;;;;;27.04;83.92;95867.25;6105183;23;20084;-89
2023/09/12 02:48:29;;;;;;;15.75;7.47;;;;;;;26.86;89.99;95869.69;6128882;23;20438;-89
2023/09/12 02:50:55;;;;;;;15.35;7.38;;;;;;;27.03;89.00;95865.63;6129592;23;20017;-89
2023/09/12 02:53:20;;;;;;;15.57;6.97;;;;;;;27.21;83.35;95858.88;6128924;23;20064;-89
2023/09/12 02:55:47;;;;;;;14.77;8.05;;;;;;;27.65;81.25;95866.28;6124589;23;20342;-89
2023/09/12 02:58:12;;;;;;;13.75;7.97;;;;;;;27.37;80.08;95856.94;6128798;23;20061;-90
2023/09/12 03:00:40;;;;;;;16.10;7.20;;;;;;;27.55;79.72;95854.72;6104552;23;20640;-89
2023/09/12 03:03:06;;;;;;;19.25;8.23;;;;;;;27.13;82.33;95856.75;6126743;23;20005;-89
2023/09/12 03:05:32;;;;;;;15.05;7.95;;;;;;;27.01;88.56;95858.88;6102833;23;20008;-90
2023/09/12 03:07:57;;;;;;;12.07;7.43;;;;;;;26.78;87.13;95854.84;6126131;23;20005;-89
2023/09/12 03:10:23;;;;;;;17.33;7.65;;;;;;;26.64;88.32;95849.22;6126463;23;20060;-90
2023/09/12 03:12:49;;;;;;;13.43;7.05;;;;;;;26.56;89.32;95853.25;6128465;23;20006;-90
2023/09/12 03:15:15;;;;;;;12.45;6.93;;;;;;;26.78;87.25;95850.25;6128536;23;20013;-90
2023/09/12 03:17:40;;;;;;;19.20;8.07;;;;;;;26.62;89.00;95847.84;6127344;23;20005;-90
2023/09/12 03:20:08;;;;;;;16.25;7.28;;;;;;;26.32;92.95;95847.56;6129460;23;20032;-90
2023/09/12 03:22:38;;;;;;;11.15;6.35;;;;;;;27.13;83.31;95837.84;6127609;23;20009;-90
2023/09/12 03:25:05;;;;;;;13.88;7.20;;;;;;;27.09;84.35;95839.41;6128854;23;20088;-90
2023/09/12 03:27:32;;;;;;;18.38;8.40;;;;;;;27.08;84.43;95837.81;6103123;23;20056;-91
2023/09/12 03:29:58;;;;;;;15.68;7.38;;;;;;;26.83;87.61;95838.69;6127223;23;20016;-90
2023/09/12 03:32:24;;;;;;;16.52;7.00;;;;;;;27.47;83.15;95839.91;6127925;23;20012;-91
2023/09/12 03:34:50;;;;;;;15.70;7.38;;;;;;;27.20;82.06;95834.84;6128982;23;20342;-91
2023/09/12 03:37:16;;;;;;;18.10;8.15;;;;;;;27.12;84.90;95829.97;6128354;23;20005;-91
2023/09/12 03:39:41;;;;;;;15.68;8.02;;;;;;;26.90;85.54;95831.09;6128152;23;20006;-91
2023/09/12 03:42:07;;;;;;;16.83;7.40;;;;;;;27.01;84.93;95834.59;6128495;23;20001;-90
2023/09/12 03:44:32;;;;;;;14.35;7.60;;;;;;;27.34;85.68;95830.47;6128834;23;20013;-90
2023/09/12 03:46:58;;;;;;;13.25;7.50;;;;;;;27.31;80.91;95830.22;6127623;23;20032;-91
2023/09/12 03:49:24;;;;;;;16.58;7.75;;;;;;;27.46;82.09;95831.00;6128114;23;20005;-90
2023/09/12 03:51:49;;;;;;;15.05;8.00;;;;;;;27.44;80.83;95830.44;6129287;23;20092;-91
2023/09/12 03:54:15;;;;;;;15.93;6.88;;;;;;;27.12;83.45;95819.19;6104377;23;20018;-91
2023/09/12 03:56:40;;;;;;;13.38;7.40;;;;;;;27.04;83.37;95820.56;6104948;23;20009;-92
2023/09/12 03:59:06;;;;;;;15.00;7.50;;;;;;;27.01;84.53;95815.69;6129804;23;20012;-92
2023/09/12 04:01:32;;;;;;;12.52;6.82;;;;;;;26.66;88.47;95819.25;6130409;23;20009;-92
2023/09/12 04:03:58;;;;;;;11.70;6.47;;;;;;;26.45;90.28;95824.63;6135227;23;20330;-94
2023/09/12 04:06:24;;;;;;;21.25;7.07;;;;;;;26.44;89.92;95817.63;6135111;23;20006;-94
2023/09/12 04:08:50;;;;;;;12.05;6.78;;;;;;;26.75;88.38;95814.94;6134859;23;20006;-94
2023/09/12 04:11:15;;;;;;;12.40;6.65;;;;;;;27.03;88.42;95824.34;6110892;23;20017;-94
2023/09/12 04:13:41;;;;;;;12.70;7.03;;;;;;;27.18;85.21;95820.81;6139289;23;20020;-94
2023/09/12 04:16:07;;;;;;;11.00;7.07;;;;;;;27.53;80.04;95816.34;6122400;23;20013;-93
2023/09/12 04:18:32;;;;;;;12.85;6.53;;;;;;;27.93;79.80;95820.75;6159607;23;19994;-94
2023/09/12 04:20:58;;;;;;;11.80;7.28;;;;;;;27.90;79.67;95813.22;6167818;23;20005;-93
2023/09/12 04:23:26;;;;;;;14.45;7.38;;;;;;;27.49;79.72;95811.50;6116443;23;20001;-94
2023/09/12 04:25:52;;;;;;;15.68;8.02;;;;;;;27.40;79.58;95817.78;6143022;23;20005;-94
2023/09/12 04:28:18;;;;;;;12.95;6.88;;;;;;;27.38;82.09;95825.34;6145043;23;20013;-94
2023/09/12 04:30:44;;;;;;;14.60;7.57;;;;;;;27.68;78.06;95824.41;6146675;23;20011;-94
2023/09/12 04:33:10;;;;;;;15.05;7.32;;;;;;;27.53;82.30;95829.84;6159905;23;20077;-94
2023/09/12 04:35:36;;;;;;;13.85;6.68;;;;;;;27.56;78.99;95816.59;6159073;23;20030;-94
2023/09/12 04:38:02;;;;;;;12.43;7.22;;;;;;;27.39;82.23;95814.25;6157971;23;19990;-93
2023/09/12 04:40:28;;;;;;;14.02;6.97;;;;;;;27.36;81.44;95825.59;6156651;23;20009;-94
2023/09/12 04:42:58;;;;;;;15.18;7.55;;;;;;;27.09;87.10;95827.81;6154529;23;20001;-77
2023/09/12 04:45:23;;;;;;;13.30;7.43;;;;;;;27.52;81.06;95825.56;6127078;23;20430;-78
2023/09/12 04:47:49;;;;;;;14.15;7.72;;;;;;;27.64;82.15;95824.16;6122085;23;20012;-80
2023/09/12 04:50:15;;;;;;;12.15;7.72;;;;;;;27.96;77.10;95822.91;6122672;23;20017;-79
2023/09/12 04:52:41;;;;;;;15.00;7.50;;;;;;;28.02;77.22;95826.41;6122079;23;20001;-79
2023/09/12 04:55:07;;;;;;;14.38;8.38;;;;;;;27.98;75.88;95828.06;6141251;23;20003;-91
2023/09/12 04:57:33;;;;;;;14.73;8.50;;;;;;;27.46;83.79;95838.25;6149943;23;20014;-92
2023/09/12 04:59:58;;;;;;;14.38;7.70;;;;;;;27.99;75.94;95826.97;6124099;23;20025;-93
2023/09/12 05:02:31;;;;;;;13.57;7.38;;;;;;;28.39;75.62;95836.72;6140882;23;20001;-93
2023/09/12 05:04:57;;;;;;;14.52;7.38;;;;;;;27.81;78.07;95825.72;6134912;23;20001;-93
2023/09/12 05:07:23;;;;;;;14.38;8.50;;;;;;;27.93;78.44;95829.72;6135219;23;20001;-93
2023/09/12 05:09:49;;;;;;;14.05;7.78;;;;;;;28.17;77.02;95829.81;6133755;23;20092;-93
2023/09/12 05:12:15;;;;;;;14.80;8.50;;;;;;;27.78;78.26;95823.56;6133106;23;20013;-93
2023/09/12 05:14:41;;;;;;;16.40;8.60;;;;;;;27.95;79.34;95827.50;6108349;23;20009;-93
2023/09/12 05:17:06;;;;;;;18.17;9.20;;;;;;;28.09;77.99;95829.59;6132736;23;20003;-93
2023/09/12 05:19:32;;;;;;;15.38;8.27;;;;;;;27.91;80.62;95831.88;6132686;23;20052;-92
2023/09/12 05:21:58;;;;;;;18.98;8.80;;;;;;;28.01;79.89;95833.72;6135894;23;20013;-93
2023/09/12 05:24:23;;;;;;;19.45;9.13;;;;;;;27.85;80.38;95829.47;6133126;23;20005;-93
2023/09/12 05:27:03;;;;;;;17.75;9.00;;;;;;;28.43;74.40;95837.75;6107911;23;20016;-93
2023/09/12 05:29:29;;;;;;;14.90;8.13;;;;;;;28.10;80.20;95833.91;6132495;23;20303;-93
2023/09/12 05:31:54;;;;;;;14.80;8.13;;;;;;;28.38;76.59;95838.59;6132541;23;20059;-93
2023/09/12 05:34:20;;;;;;;15.43;8.35;;;;;;;28.83;74.74;95833.91;6107958;23;20005;-93
2023/09/12 05:36:46;;;;;;;15.88;9.23;;;;;;;29.14;72.00;95825.50;6108556;23;20005;-93
2023/09/12 05:39:13;;;;;;;18.33;8.88;;;;;;;29.40;66.86;95833.34;6134151;23;20068;-94
2023/09/12 05:41:39;;;;;;;16.13;8.77;;;;;;;29.65;68.52;95832.28;6111061;23;20008;-94
2023/09/12 05:44:05;;;;;;;24.42;10.07;;;;;;;29.24;67.08;95827.28;6107563;23;20010;-93
2023/09/12 05:46:31;;;;;;;15.98;8.77;;;;;;;29.77;66.30;95819.09;6132497;23;20006;-93
2023/09/12 05:48:56;;;;;;;14.52;8.48;;;;;;;29.60;67.38;95830.41;6133634;23;20013;-93
2023/09/12 05:51:22;;;;;;;15.90;8.13;;;;;;;29.55;66.38;95833.97;6132267;23;20080;-94
2023/09/12 05:53:47;;;;;;;15.82;8.57;;;;;;;30.26;65.08;95815.97;6132775;23;20001;-93
2023/09/12 05:56:13;;;;;;;17.83;7.90;;;;;;;29.86;64.54;95827.38;6132617;23;20071;-94
2023/09/12 05:58:42;;;;;;;15.80;8.18;;;;;;;30.77;60.84;95825.22;6132263;23;20016;-93
2023/09/12 06:01:08;;;;;;;16.42;7.72;;;;;;;30.64;60.31;95825.97;6158588;23;20036;-94
2023/09/12 06:03:34;;;;;;;15.98;7.97;;;;;;;30.86;61.26;95828.88;6109259;23;20002;-93
2023/09/12 06:06:09;;;;;;;20.02;8.60;;;;;;;30.81;60.00;95826.22;6132527;23;20385;-94
2023/09/12 06:08:35;;;;;;;14.45;8.05;;;;;;;30.45;62.58;95825.97;6109316;23;20001;-93
2023/09/12 06:11:00;;;;;;;14.43;7.22;;;;;;;31.36;60.51;95822.81;6110945;23;20021;-93
2023/09/12 06:13:26;;;;;;;13.15;7.25;;;;;;;31.30;60.49;95824.00;6135851;23;20005;-94
2023/09/12 06:15:51;;;;;;;12.85;7.07;;;;;;;31.42;59.42;95822.41;6131979;23;20063;-93
2023/09/12 06:18:18;;;;;;;14.30;7.38;;;;;;;31.31;61.22;95826.41;6110455;23;20001;-93
2023/09/12 06:20:43;;;;;;;18.15;8.35;;;;;;;31.33;59.96;95821.50;6146978;23;19989;-92
2023/09/12 06:23:10;;;;;;;10.93;6.93;;;;;;;32.42;54.04;95829.81;6151558;23;20062;-92
2023/09/12 06:25:36;;;;;;;20.77;8.15;;;;;;;32.26;54.38;95829.34;6110502;23;20097;-93
2023/09/12 06:28:01;;;;;;;12.45;7.25;;;;;;;32.68;53.19;95829.19;6131410;23;20009;-94
2023/09/12 06:30:27;;;;;;;13.95;7.03;;;;;;;31.94;54.53;95833.06;6104855;23;20024;-93
2023/09/12 06:32:52;;;;;;;14.23;7.22;;;;;;;31.93;55.42;95828.72;6104009;23;20075;-93
2023/09/12 06:35:18;;;;;;;13.57;6.95;;;;;;;32.61;54.50;95835.88;6128597;23;20032;-93
2023/09/12 06:37:44;;;;;;;13.05;7.18;;;;;;;33.60;50.91;95833.03;6128277;23;20028;-93
2023/09/12 06:40:10;;;;;;;12.25;7.22;;;;;;;34.08;49.63;95823.22;6129035;23;20013;-93
2023/09/12 06:42:35;;;;;;;15.48;7.03;;;;;;;33.12;50.44;95841.16;6128569;23;20435;-93
2023/09/12 06:45:01;;;;;;;12.65;7.53;;;;;;;33.41;51.70;95841.47;6130421;23;20009;-93
2023/09/12 06:47:26;;;;;;;15.98;7.78;;;;;;;33.81;49.80;95835.19;6128656;23;20006;-92
2023/09/12 06:49:52;;;;;;;13.43;7.22;;;;;;;34.95;46.64;95835.69;6130604;23;20065;-94
2023/09/12 06:52:17;;;;;;;11.85;7.00;;;;;;;34.84;46.36;95831.69;6106136;23;20010;-93
2023/09/12 06:54:43;;;;;;;10.35;6.30;;;;;;;35.24;46.32;95838.84;6105842;23;20024;-93
2023/09/12 06:57:08;;;;;;;16.27;7.63;;;;;;;36.03;44.63;95837.38;6130151;23;20016;-93
2023/09/12 06:59:34;;;;;;;15.70;6.90;;;;;;;36.57;44.42;95842.94;6129194;23;20006;-93
2023/09/12 07:01:59;;;;;;;12.77;6.72;;;;;;;36.92;41.97;95842.59;6156011;23;20007;-93
2023/09/12 07:04:25;;;;;;;15.20;7.78;;;;;;;36.73;42.70;95845.88;6130493;23;20013;-93
2023/09/12 07:06:51;;;;;;;13.32;6.78;;;;;;;36.81;42.66;95848.50;6128234;23;20464;-94
2023/09/12 07:09:17;;;;;;;9.57;5.82;;;;;;;38.89;39.97;95838.63;6130800;23;20056;-94
2023/09/12 07:11:42;;;;;;;10.18;5.88;;;;;;;38.93;39.58;95844.22;6109692;23;20009;-94
2023/09/12 07:14:09;;;;;;;11.27;6.32;;;;;;;38.42;40.81;95844.75;6132324;23;20009;-94
2023/09/12 07:16:36;;;;;;;10.30;6.05;;;;;;;37.06;43.79;95845.88;6129631;23;20013;-93
2023/09/12 07:19:03;;;;;;;10.65;6.35;;;;;;;36.28;45.64;95847.31;6129600;23;20063;-94
2023/09/12 07:21:29;;;;;;;13.73;7.50;;;;;;;35.95;46.46;95851.88;6105897;23;20001;-93
2023/09/12 07:23:55;;;;;;;13.35;6.82;;;;;;;35.62;46.31;95852.56;6104890;23;20064;-93
2023/09/12 07:26:21;;;;;;;13.95;6.20;;;;;;;37.37;43.06;95852.78;6130005;23;20001;-93
2023/09/12 07:29:02;;;;;;;13.88;6.70;;;;;;;37.11;42.97;95851.13;6104611;23;20101;-94
2023/09/12 07:31:28;;;;;;;9.07;6.53;;;;;;;37.20;42.05;95854.59;6131690;23;20009;-92
2023/09/12 07:33:53;;;;;;;17.27;7.20;;;;;;;37.06;42.57;95848.63;6132042;23;20005;-92
2023/09/12 07:36:19;;;;;;;13.35;6.53;;;;;;;36.43;43.68;95853.34;6136415;23;20035;-93
2023/09/12 07:38:45;;;;;;;14.43;7.22;;;;;;;37.32;43.33;95858.47;6133084;23;20387;-93
2023/09/12 07:41:11;;;;;;;16.17;7.65;;;;;;;36.80;43.41;95857.06;6131926;23;20303;-92
2023/09/12 07:43:36;;;;;;;14.95;6.75;;;;;;;36.96;44.00;95854.50;6131720;23;20001;-93
2023/09/12 07:46:02;;;;;;;15.23;6.78;;;;;;;38.03;43.46;95858.09;6131199;23;20006;-93
2023/09/12 07:48:27;;;;;;;12.48;5.75;;;;;;;38.95;40.31;95856.47;6128680;23;20012;-92
2023/09/12 07:50:53;;;;;;;12.80;6.72;;;;;;;39.56;39.71;95853.34;6128393;23;20005;-93
2023/09/12 07:53:19;;;;;;;14.60;7.47;;;;;;;38.79;38.02;95861.09;6128881;23;20089;-92
2023/09/12 07:55:46;;;;;;;14.25;7.18;;;;;;;39.39;38.41;95867.47;6129540;23;20013;-93
2023/09/12 07:58:18;;;;;;;10.75;6.10;;;;;;;39.60;39.28;95869.94;6131502;23;20008;-93
2023/09/12 08:00:43;;;;;;;10.77;6.90;;;;;;;40.07;37.66;95875.41;6130341;23;20056;-92
2023/09/12 08:03:09;;;;;;;17.13;6.88;;;;;;;40.59;38.05;95875.44;6128647;23;20009;-92
2023/09/12 08:05:34;;;;;;;11.05;6.55;;;;;;;41.12;37.37;95867.44;6128971;23;20005;-91
2023/09/12 08:08:00;;;;;;;11.35;6.82;;;;;;;41.81;35.91;95882.03;6127596;23;20002;-94
2023/09/12 08:10:26;;;;;;;15.18;6.40;;;;;;;42.69;33.01;95874.66;6128968;23;20009;-92
2023/09/12 08:12:52;;;;;;;10.05;6.47;;;;;;;42.22;32.85;95876.75;6105498;23;20005;-93
2023/09/12 08:15:17;;;;;;;10.80;6.55;;;;;;;41.91;33.90;95881.44;6130567;23;20028;-93
2023/09/12 08:17:43;;;;;;;9.40;6.90;;;;;;;41.59;33.94;95878.16;6130604;23;20069;-93
2023/09/12 08:20:09;;;;;;;12.88;6.80;;;;;;;40.41;35.35;95878.59;6159155;23;20052;-93
2023/09/12 08:22:36;;;;;;;12.65;6.30;;;;;;;42.02;33.90;95880.78;6133867;23;20014;-93
2023/09/12 08:25:02;;;;;;;12.02;6.65;;;;;;;43.03;32.38;95881.00;6119021;23;20057;-92
2023/09/12 08:27:28;;;;;;;11.43;7.03;;;;;;;42.39;33.17;95880.94;6116260;23;20017;-93
2023/09/12 08:29:53;;;;;;;9.48;6.35;;;;;;;43.12;32.06;95883.47;6127230;23;20005;-93
2023/09/12 08:32:19;;;;;;;9.25;6.47;;;;;;;41.81;32.53;95884.78;6127148;23;20009;-93
2023/09/12 08:34:45;;;;;;;12.73;6.88;;;;;;;43.01;31.97;95875.81;6128937;23;20275;-92
2023/09/12 08:37:11;;;;;;;8.68;6.43;;;;;;;43.70;30.64;95878.13;6127652;23;20025;-92
2023/09/12 08:39:45;;;;;;;9.70;6.40;;;;;;;44.17;30.59;95882.06;6104968;23;20032;-92
2023/09/12 08:42:15;;;;;;;11.65;6.80;;;;;;;41.85;32.46;95877.41;6129342;23;20582;-92
2023/09/12 08:44:44;;;;;;;8.90;6.45;;;;;;;44.12;30.53;95881.63;6128599;23;20001;-92
2023/09/12 08:47:12;;;;;;;7.97;6.30;;;;;;;43.04;30.72;95886.13;6103495;23;20006;-91
2023/09/12 08:49:38;;;;;;;8.85;6.32;;;;;;;41.99;31.82;95884.28;6128362;23;20005;-92
2023/09/12 08:52:10;;;;;;;9.20;5.95;;;;;;;43.32;31.90;95884.88;6154311;23;20334;-92
2023/09/12 08:54:36;;;;;;;9.13;6.43;;;;;;;44.03;31.12;95883.94;6128344;23;20457;-92
2023/09/12 08:57:04;;;;;;;10.05;6.32;;;;;;;44.38;30.89;95883.41;6153450;23;20014;-92
2023/09/12 08:59:33;;;;;;;8.45;6.10;;;;;;;44.93;28.96;95883.25;6128865;23;20012;-92
2023/09/12 09:02:00;;;;;;;10.00;6.53;;;;;;;43.31;30.36;95880.50;6128592;23;20005;-92
2023/09/12 09:04:30;;;;;;;8.63;6.03;;;;;;;44.89;30.71;95868.56;6129215;23;20037;-92
2023/09/12 09:06:59;;;;;;;8.48;5.90;;;;;;;44.47;29.48;95875.53;6127020;23;20088;-92
2023/09/12 09:09:25;;;;;;;17.20;7.38;;;;;;;44.78;29.92;95878.84;6103462;23;20012;-91
2023/09/12 09:11:51;;;;;;;11.93;6.38;;;;;;;44.18;30.64;95880.88;6152663;23;20009;-91
2023/09/12 09:14:16;;;;;;;10.20;6.22;;;;;;;44.33;29.48;95876.22;6127213;23;20448;-91
2023/09/12 09:16:42;;;;;;;10.75;6.25;;;;;;;43.83;29.79;95877.81;6102334;23;20033;-92
2023/09/12 09:19:10;;;;;;;11.60;6.80;;;;;;;43.51;31.07;95876.38;6102931;23;19997;-91
2023/09/12 09:21:39;;;;;;;12.00;6.63;;;;;;;42.69;31.30;95875.44;6153419;23;20009;-91
2023/09/12 09:24:10;;;;;;;8.13;5.85;;;;;;;43.90;31.16;95877.88;6127358;23;20001;-91
2023/09/12 09:26:50;;;;;;;14.00;7.88;;;;;;;43.76;30.04;95876.56;6126709;23;20401;-91
2023/09/12 09:29:18;;;;;;;22.52;10.15;;;;;;;44.16;29.85;95872.13;6126407;23;20009;-91
2023/09/12 09:31:46;;;;;;;34.00;11.23;;;;;;;44.02;30.50;95877.59;6125619;23;20006;-91
2023/09/12 09:34:13;;;;;;;19.15;8.15;;;;;;;43.20;31.02;95883.19;6102146;23;20001;-90
2023/09/12 09:36:49;;;;;;;9.68;6.10;;;;;;;44.17;29.61;95873.75;6102367;23;20101;-91
2023/09/12 09:39:16;;;;;;;7.90;6.50;;;;;;;42.75;31.06;95873.94;6125845;23;20013;-93
2023/09/12 09:41:46;;;;;;;7.97;5.95;;;;;;;42.67;30.97;95872.25;6128050;23;20009;-93
2023/09/12 09:44:13;;;;;;;10.13;6.55;;;;;;;43.75;31.01;95871.44;6155747;23;20037;-93
2023/09/12 09:46:42;;;;;;;8.77;6.10;;;;;;;44.46;29.95;95874.72;6129809;23;20012;-94
2023/09/12 09:49:10;;;;;;;7.43;6.03;;;;;;;44.88;29.95;95867.00;6127864;23;20006;-91
2023/09/12 09:51:43;;;;;;;9.45;6.53;;;;;;;44.86;29.53;95866.59;6127047;23;20009;-90
2023/09/12 09:54:09;;;;;;;10.40;7.10;;;;;;;44.37;29.84;95868.75;6127098;23;20002;-92
2023/09/12 09:56:51;;;;;;;10.02;7.30;;;;;;;44.58;28.88;95865.28;6125417;23;20006;-91
2023/09/12 09:59:18;;;;;;;8.57;6.60;;;;;;;43.67;29.41;95869.78;6127580;23;20089;-91
2023/09/12 10:01:45;;;;;;;8.82;6.25;;;;;;;44.90;28.97;95859.06;6126752;23;20088;-90
2023/09/12 10:04:11;;;;;;;8.38;6.00;;;;;;;44.39;29.18;95862.78;6102701;23;20089;-91
2023/09/12 10:06:38;;;;;;;8.10;5.88;;;;;;;45.07;28.15;95852.75;6101781;23;20079;-91
2023/09/12 10:09:13;;;;;;;7.40;5.45;;;;;;;44.12;29.74;95860.22;6127204;23;20008;-91
2023/09/12 10:11:43;;;;;;;7.93;6.22;;;;;;;44.23;28.38;95849.22;6102527;23;20010;-90
2023/09/12 10:14:11;;;;;;;9.20;6.20;;;;;;;43.42;28.39;95853.72;6127913;23;20002;-91
2023/09/12 10:16:51;;;;;;;8.02;5.55;;;;;;;43.56;28.82;95849.50;6102638;23;20052;-90
2023/09/12 10:19:20;;;;;;;11.05;6.82;;;;;;;43.18;28.49;95852.31;6155891;23;20091;-91
2023/09/12 10:21:49;;;;;;;8.57;6.03;;;;;;;43.55;29.26;95845.94;6114522;23;20013;-91
2023/09/12 10:24:16;;;;;;;9.20;5.97;;;;;;;45.00;27.46;95849.16;6106903;23;20009;-91
2023/09/12 10:26:45;;;;;;;10.57;6.90;;;;;;;43.78;28.24;95851.28;6134912;23;19990;-91
2023/09/12 10:29:17;;;;;;;9.70;6.50;;;;;;;42.90;29.27;95854.78;6146357;23;20036;-91
2023/09/12 10:31:43;;;;;;;8.48;6.50;;;;;;;43.91;29.94;95849.03;6103976;23;20011;-91
2023/09/12 10:34:13;;;;;;;9.07;6.60;;;;;;;43.97;28.84;95847.50;6106040;23;20001;-91
2023/09/12 10:36:40;;;;;;;11.00;6.72;;;;;;;44.26;28.12;95842.88;6128166;23;20005;-91
2023/09/12 10:39:07;;;;;;;9.52;6.68;;;;;;;44.58;28.27;95843.09;6104029;23;20033;-89
2023/09/12 10:41:39;;;;;;;7.53;5.82;;;;;;;44.95;27.70;95842.03;6152351;23;20461;-91
2023/09/12 10:44:25;;;;;;;11.25;7.43;;;;;;;44.61;27.67;95836.75;6128805;23;20001;-91
2023/09/12 10:46:55;;;;;;;7.90;6.05;;;;;;;44.33;28.67;95842.16;6102351;23;20037;-91
2023/09/12 10:49:20;;;;;;;7.78;6.28;;;;;;;44.23;28.29;95838.91;6128271;23;20005;-90
2023/09/12 10:51:47;;;;;;;10.23;6.45;;;;;;;42.80;28.87;95845.19;6128475;23;19998;-91
2023/09/12 10:54:15;;;;;;;7.60;6.18;;;;;;;44.24;28.04;95829.44;6104619;23;20338;-90
2023/09/12 10:56:41;;;;;;;9.93;6.50;;;;;;;43.51;28.04;95831.28;6127596;23;20006;-90
2023/09/12 10:59:06;;;;;;;10.30;6.60;;;;;;;44.03;28.20;95826.53;6127903;23;20009;-91
2023/09/12 11:01:36;;;;;;;10.57;6.18;;;;;;;44.34;28.53;95832.69;6104348;23;20037;-90
2023/09/12 11:04:27;;;;;;;10.10;6.93;;;;;;;45.30;26.63;95832.19;6104040;23;20009;-90
2023/09/12 11:06:53;;;;;;;10.07;6.72;;;;;;;44.74;27.51;95841.97;6102835;23;20024;-91
2023/09/12 11:09:24;;;;;;;8.82;6.47;;;;;;;43.99;28.27;95836.81;6128642;23;20006;-91
2023/09/12 11:12:01;;;;;;;10.32;6.55;;;;;;;44.48;29.00;95832.75;6103909;23;20052;-91
2023/09/12 11:14:27;;;;;;;12.45;6.68;;;;;;;45.48;27.66;95824.72;6128172;23;20006;-91
2023/09/12 11:17:07;;;;;;;9.25;5.75;;;;;;;43.34;27.91;95826.38;6127752;23;20441;-90
2023/09/12 11:19:52;;;;;;;9.25;6.22;;;;;;;44.71;27.28;95826.13;6128277;23;20036;-91
2023/09/12 11:22:41;;;;;;;8.65;6.10;;;;;;;43.96;27.79;95823.72;6128057;23;20012;-91
2023/09/12 11:25:25;;;;;;;9.75;6.60;;;;;;;44.74;27.33;95828.09;6103971;23;20009;-91
2023/09/12 11:27:51;;;;;;;11.40;6.63;;;;;;;44.80;27.81;95820.97;6127411;23;20009;-91